Kuwait, Kuwait

2:06 AM AST on July 26, 2014 (GMT +0300)
Kuwait International (OKBK) Elev 180 ft | 29.22 °N, 47.98 °E | Change Station

Current weather conditions updated 6 minutes ago

Clear
Clear
100 °F
Feels Like 100 °F
N
12
Wind Variable Wind from NNW

Today is forecast to be nearly the same temperature as yesterday.

Today
High -- | Low -- °F
--% Chance of Precip.
Yesterday
High -- | Low -- °F
Precip. -- in
5:04 AM 6:44 PM
Waning Crescent, 1% visible
Pressure 29.47 in
Visibility -9999.0 miles
Clouds
Dew Point 52 °F
Humidity 20%
Rainfall 0.00 in
Snow Depth Not available.
UV Not available.
Pollen Not available.
Air Quality Not available.
Flu Activity Not available.
METAR OKBK 252300Z 34010KT CAVOK 38/11 Q0998 NOSIG

More Conditions Fewer Conditions

Pressure 29.47 in
Visibility -9999.0 miles
Clouds
Dew Point 52 °F
Humidity 20%
Rainfall 0.00 in
Snow Depth Not available.
UV Not available.
Pollen Not available.
Air Quality Not available.
Flu Activity Not available.
METAR OKBK 252300Z 34010KT CAVOK 38/11 Q0998 NOSIG

More Conditions Fewer Conditions

10-Day Weather Forecast

Almanac

Astronomy

Jul. 26, 2014 Rise Set
Actual Time 5:04 AM AST 6:44 PM AST
Civil Twilight 4:38 AM AST 7:10 PM AST
Nautical Twilight 4:07 AM AST 7:41 PM AST
Astronomical Twilight 3:34 AM AST 8:14 PM AST
Moon 4:32 AM AST (7/26) 6:10 PM AST (7/26)
Length of Visible Light 14h 31m
Length of Day
13h 39m
Tomorrow will be 1m 11s shorter.
Waning Crescent, 1% of the Moon is Illuminated
Jul 25
Waning Crescent
Jul 26
New
Aug 3
First Quarter
Aug 10
Full
Aug 17
Last Quarter

Yesterday's Extremes

Country Highs Country Lows

Community

WunderPhotos

Upload Photos

1,737,436 photos uploaded!

Nearby

Snow Depth

Not available.

Earthquake Activity

City Distance Mag. Time & Date
No recent earthquake activity has been reported nearby.
Minimum magnitude displayed is 2.5.

Coastal Water Temperatures

Place Temperature
No Stations Reporting

Nearby Weather Stations

Station Location Temp. Heat Index Dew Point Humidity Wind Precip. Elev Updated Type
Abdullah Al-Salem Area, Abdullah Alsalem 100.7 °F 100 °F 58 °F 24% West  at  6.0 mph 0.00 in / hr 59 ft 2:02 AM AST Normal

Show More Stations Show Fewer Stations